sensor_id;sensor_type;location;lat;lon;timestamp;temperature;humidity
2621;DHT22;1320;48.128;11.592;2022-08-07T00:00:58;20.20;99.90
2621;DHT22;1320;48.128;11.592;2022-08-07T00:03:24;20.20;99.90
2621;DHT22;1320;48.128;11.592;2022-08-07T00:05:54;20.10;99.90
2621;DHT22;1320;48.128;11.592;2022-08-07T00:08:20;20.10;99.90
2621;DHT22;1320;48.128;11.592;2022-08-07T00:10:48;20.10;99.90
2621;DHT22;1320;48.128;11.592;2022-08-07T00:13:14;20.00;99.90
2621;DHT22;1320;48.128;11.592;2022-08-07T00:15:39;20.00;99.90
2621;DHT22;1320;48.128;11.592;2022-08-07T00:18:05;20.00;99.90
2621;DHT22;1320;48.128;11.592;2022-08-07T00:20:31;20.00;99.90
2621;DHT22;1320;48.128;11.592;2022-08-07T00:22:56;20.00;99.90
2621;DHT22;1320;48.128;11.592;2022-08-07T00:25:22;20.10;99.90
2621;DHT22;1320;48.128;11.592;2022-08-07T00:27:49;20.10;99.90
2621;DHT22;1320;48.128;11.592;2022-08-07T00:30:16;20.00;99.90
2621;DHT22;1320;48.128;11.592;2022-08-07T00:32:45;20.00;99.90
2621;DHT22;1320;48.128;11.592;2022-08-07T00:35:11;20.00;99.90
2621;DHT22;1320;48.128;11.592;2022-08-07T00:37:36;20.00;99.90
2621;DHT22;1320;48.128;11.592;2022-08-07T00:40:02;20.00;99.90
2621;DHT22;1320;48.128;11.592;2022-08-07T00:42:28;20.00;99.90
2621;DHT22;1320;48.128;11.592;2022-08-07T00:44:54;20.00;99.90
2621;DHT22;1320;48.128;11.592;2022-08-07T00:47:19;20.00;99.90
2621;DHT22;1320;48.128;11.592;2022-08-07T00:49:45;20.00;99.90
2621;DHT22;1320;48.128;11.592;2022-08-07T00:52:11;20.00;99.90
2621;DHT22;1320;48.128;11.592;2022-08-07T00:54:36;20.00;99.90
2621;DHT22;1320;48.128;11.592;2022-08-07T00:57:02;20.00;99.90
2621;DHT22;1320;48.128;11.592;2022-08-07T00:59:30;20.00;99.90
2621;DHT22;1320;48.128;11.592;2022-08-07T01:01:56;20.00;99.90
2621;DHT22;1320;48.128;11.592;2022-08-07T01:04:21;20.00;99.90
2621;DHT22;1320;48.128;11.592;2022-08-07T01:06:47;19.90;99.90
2621;DHT22;1320;48.128;11.592;2022-08-07T01:09:13;19.90;99.90
2621;DHT22;1320;48.128;11.592;2022-08-07T01:11:39;19.90;99.90
2621;DHT22;1320;48.128;11.592;2022-08-07T01:14:06;19.90;99.90
2621;DHT22;1320;48.128;11.592;2022-08-07T01:16:32;19.90;99.90
2621;DHT22;1320;48.128;11.592;2022-08-07T01:18:58;19.90;99.90
2621;DHT22;1320;48.128;11.592;2022-08-07T01:21:24;19.80;99.90
2621;DHT22;1320;48.128;11.592;2022-08-07T01:23:51;19.80;99.90
2621;DHT22;1320;48.128;11.592;2022-08-07T01:26:18;19.80;99.90
2621;DHT22;1320;48.128;11.592;2022-08-07T01:28:48;19.80;99.90
2621;DHT22;1320;48.128;11.592;2022-08-07T01:31:18;19.70;99.90
2621;DHT22;1320;48.128;11.592;2022-08-07T01:33:47;19.70;99.90
2621;DHT22;1320;48.128;11.592;2022-08-07T01:36:13;19.70;99.90
2621;DHT22;1320;48.128;11.592;2022-08-07T01:38:39;19.70;99.90
2621;DHT22;1320;48.128;11.592;2022-08-07T01:41:06;19.70;99.90
2621;DHT22;1320;48.128;11.592;2022-08-07T01:43:33;19.70;99.90
2621;DHT22;1320;48.128;11.592;2022-08-07T01:46:01;19.70;99.90
2621;DHT22;1320;48.128;11.592;2022-08-07T01:48:27;19.70;99.90
2621;DHT22;1320;48.128;11.592;2022-08-07T01:50:57;19.70;99.90
2621;DHT22;1320;48.128;11.592;2022-08-07T01:53:25;19.70;99.90
2621;DHT22;1320;48.128;11.592;2022-08-07T01:55:55;19.70;99.90
2621;DHT22;1320;48.128;11.592;2022-08-07T01:58:27;19.70;99.90
2621;DHT22;1320;48.128;11.592;2022-08-07T02:00:59;19.70;99.90
2621;DHT22;1320;48.128;11.592;2022-08-07T02:03:28;19.70;99.90
2621;DHT22;1320;48.128;11.592;2022-08-07T02:05:57;19.70;99.90
2621;DHT22;1320;48.128;11.592;2022-08-07T02:08:28;19.70;99.90
2621;DHT22;1320;48.128;11.592;2022-08-07T02:10:55;19.60;99.90
2621;DHT22;1320;48.128;11.592;2022-08-07T02:13:26;19.60;99.90
2621;DHT22;1320;48.128;11.592;2022-08-07T02:15:53;19.60;99.90
2621;DHT22;1320;48.128;11.592;2022-08-07T02:18:21;19.50;99.90
2621;DHT22;1320;48.128;11.592;2022-08-07T02:20:51;19.50;99.90
2621;DHT22;1320;48.128;11.592;2022-08-07T02:23:17;19.50;99.90
2621;DHT22;1320;48.128;11.592;2022-08-07T02:25:44;19.50;99.90
2621;DHT22;1320;48.128;11.592;2022-08-07T02:28:12;19.40;99.90
2621;DHT22;1320;48.128;11.592;2022-08-07T02:30:39;19.50;99.90
2621;DHT22;1320;48.128;11.592;2022-08-07T02:33:06;19.50;99.90
2621;DHT22;1320;48.128;11.592;2022-08-07T02:35:33;19.50;99.90
2621;DHT22;1320;48.128;11.592;2022-08-07T02:38:02;19.50;99.90
2621;DHT22;1320;48.128;11.592;2022-08-07T02:40:29;19.50;99.90
2621;DHT22;1320;48.128;11.592;2022-08-07T02:42:57;19.40;99.90
2621;DHT22;1320;48.128;11.592;2022-08-07T02:45:26;19.40;99.90
2621;DHT22;1320;48.128;11.592;2022-08-07T02:47:52;19.40;99.90
2621;DHT22;1320;48.128;11.592;2022-08-07T02:50:18;19.40;99.90
2621;DHT22;1320;48.128;11.592;2022-08-07T02:53:07;19.40;99.90
2621;DHT22;1320;48.128;11.592;2022-08-07T02:55:37;19.30;99.90
2621;DHT22;1320;48.128;11.592;2022-08-07T02:58:06;19.30;99.90
2621;DHT22;1320;48.128;11.592;2022-08-07T03:00:35;19.30;99.90
2621;DHT22;1320;48.128;11.592;2022-08-07T03:03:05;19.20;99.90
2621;DHT22;1320;48.128;11.592;2022-08-07T03:05:32;19.20;99.90
2621;DHT22;1320;48.128;11.592;2022-08-07T03:07:58;19.10;99.90
2621;DHT22;1320;48.128;11.592;2022-08-07T03:10:24;19.10;99.90
2621;DHT22;1320;48.128;11.592;2022-08-07T03:12:50;19.00;99.90
2621;DHT22;1320;48.128;11.592;2022-08-07T03:15:17;19.00;99.90
2621;DHT22;1320;48.128;11.592;2022-08-07T03:17:44;19.00;99.90
2621;DHT22;1320;48.128;11.592;2022-08-07T03:20:10;19.00;99.90
2621;DHT22;1320;48.128;11.592;2022-08-07T03:22:37;18.90;99.90
2621;DHT22;1320;48.128;11.592;2022-08-07T03:25:05;18.90;99.90
2621;DHT22;1320;48.128;11.592;2022-08-07T03:27:31;18.90;99.90
2621;DHT22;1320;48.128;11.592;2022-08-07T03:29:59;18.90;99.90
2621;DHT22;1320;48.128;11.592;2022-08-07T03:32:29;18.90;99.90
2621;DHT22;1320;48.128;11.592;2022-08-07T03:35:00;18.90;99.90
2621;DHT22;1320;48.128;11.592;2022-08-07T03:37:28;18.80;99.90
2621;DHT22;1320;48.128;11.592;2022-08-07T03:39:55;18.80;99.90
2621;DHT22;1320;48.128;11.592;2022-08-07T03:42:21;18.80;99.90
2621;DHT22;1320;48.128;11.592;2022-08-07T03:44:48;18.80;99.90
2621;DHT22;1320;48.128;11.592;2022-08-07T03:47:14;18.80;99.90
2621;DHT22;1320;48.128;11.592;2022-08-07T03:49:42;18.80;99.90
2621;DHT22;1320;48.128;11.592;2022-08-07T03:52:08;18.80;99.90
2621;DHT22;1320;48.128;11.592;2022-08-07T03:54:34;18.80;99.90
2621;DHT22;1320;48.128;11.592;2022-08-07T03:57:00;18.70;99.90
2621;DHT22;1320;48.128;11.592;2022-08-07T03:59:27;18.70;99.90
2621;DHT22;1320;48.128;11.592;2022-08-07T04:01:54;18.70;99.90
2621;DHT22;1320;48.128;11.592;2022-08-07T04:04:21;18.70;99.90
2621;DHT22;1320;48.128;11.592;2022-08-07T04:06:47;18.60;99.90
2621;DHT22;1320;48.128;11.592;2022-08-07T04:09:13;18.60;99.90
2621;DHT22;1320;48.128;11.592;2022-08-07T04:11:40;18.60;99.90
2621;DHT22;1320;48.128;11.592;2022-08-07T04:14:07;18.60;99.90
2621;DHT22;1320;48.128;11.592;2022-08-07T04:16:33;18.60;99.90
2621;DHT22;1320;48.128;11.592;2022-08-07T04:19:00;18.60;99.90
2621;DHT22;1320;48.128;11.592;2022-08-07T04:21:25;18.60;99.90
2621;DHT22;1320;48.128;11.592;2022-08-07T04:23:51;18.60;99.90
2621;DHT22;1320;48.128;11.592;2022-08-07T04:26:17;18.60;99.90
2621;DHT22;1320;48.128;11.592;2022-08-07T04:28:43;18.60;99.90
2621;DHT22;1320;48.128;11.592;2022-08-07T04:31:10;18.60;99.90
2621;DHT22;1320;48.128;11.592;2022-08-07T04:33:36;18.60;99.90
2621;DHT22;1320;48.128;11.592;2022-08-07T04:36:04;18.60;99.90
2621;DHT22;1320;48.128;11.592;2022-08-07T04:38:33;18.60;99.90
2621;DHT22;1320;48.128;11.592;2022-08-07T04:40:59;18.60;99.90
2621;DHT22;1320;48.128;11.592;2022-08-07T04:43:31;18.60;99.90
2621;DHT22;1320;48.128;11.592;2022-08-07T04:54:23;18.60;99.90
2621;DHT22;1320;48.128;11.592;2022-08-07T05:10:05;18.70;99.90
2621;DHT22;1320;48.128;11.592;2022-08-07T05:12:40;18.70;99.90
2621;DHT22;1320;48.128;11.592;2022-08-07T05:15:10;18.70;99.90
2621;DHT22;1320;48.128;11.592;2022-08-07T05:17:51;18.80;99.90
2621;DHT22;1320;48.128;11.592;2022-08-07T05:20:25;18.80;99.90
2621;DHT22;1320;48.128;11.592;2022-08-07T05:22:55;18.80;99.90
2621;DHT22;1320;48.128;11.592;2022-08-07T05:25:23;18.90;99.90
2621;DHT22;1320;48.128;11.592;2022-08-07T05:27:50;18.90;99.90
2621;DHT22;1320;48.128;11.592;2022-08-07T05:30:16;18.90;99.90
2621;DHT22;1320;48.128;11.592;2022-08-07T05:32:43;19.00;99.90
2621;DHT22;1320;48.128;11.592;2022-08-07T05:35:12;19.00;99.90
2621;DHT22;1320;48.128;11.592;2022-08-07T05:37:38;19.10;99.90
2621;DHT22;1320;48.128;11.592;2022-08-07T05:40:05;19.10;99.90
2621;DHT22;1320;48.128;11.592;2022-08-07T05:42:30;19.10;99.90
2621;DHT22;1320;48.128;11.592;2022-08-07T05:44:57;19.10;99.90
2621;DHT22;1320;48.128;11.592;2022-08-07T05:47:23;19.10;99.90
2621;DHT22;1320;48.128;11.592;2022-08-07T05:49:50;19.10;99.90
2621;DHT22;1320;48.128;11.592;2022-08-07T05:52:17;19.20;99.90
2621;DHT22;1320;48.128;11.592;2022-08-07T05:54:43;19.20;99.90
2621;DHT22;1320;48.128;11.592;2022-08-07T05:57:09;19.20;99.90
2621;DHT22;1320;48.128;11.592;2022-08-07T05:59:37;19.20;99.90
2621;DHT22;1320;48.128;11.592;2022-08-07T06:02:09;19.20;99.90
2621;DHT22;1320;48.128;11.592;2022-08-07T06:04:40;19.30;99.90
2621;DHT22;1320;48.128;11.592;2022-08-07T06:07:10;19.30;99.90
2621;DHT22;1320;48.128;11.592;2022-08-07T06:09:36;19.40;99.90
2621;DHT22;1320;48.128;11.592;2022-08-07T06:12:02;19.40;99.90
2621;DHT22;1320;48.128;11.592;2022-08-07T06:14:29;19.50;99.90
2621;DHT22;1320;48.128;11.592;2022-08-07T06:16:55;19.50;99.90
2621;DHT22;1320;48.128;11.592;2022-08-07T06:19:21;19.60;99.90
2621;DHT22;1320;48.128;11.592;2022-08-07T06:21:48;19.70;99.90
2621;DHT22;1320;48.128;11.592;2022-08-07T06:24:14;19.70;99.90
2621;DHT22;1320;48.128;11.592;2022-08-07T06:26:40;19.80;99.90
2621;DHT22;1320;48.128;11.592;2022-08-07T06:29:07;19.80;99.90
2621;DHT22;1320;48.128;11.592;2022-08-07T06:31:34;19.90;99.90
2621;DHT22;1320;48.128;11.592;2022-08-07T06:34:00;19.90;99.90
2621;DHT22;1320;48.128;11.592;2022-08-07T06:36:26;20.00;99.90
2621;DHT22;1320;48.128;11.592;2022-08-07T06:38:53;20.00;99.90
2621;DHT22;1320;48.128;11.592;2022-08-07T06:41:37;20.10;99.90
2621;DHT22;1320;48.128;11.592;2022-08-07T06:44:05;20.10;99.90
2621;DHT22;1320;48.128;11.592;2022-08-07T06:46:31;20.20;99.90
2621;DHT22;1320;48.128;11.592;2022-08-07T06:48:56;20.30;99.90
2621;DHT22;1320;48.128;11.592;2022-08-07T06:51:26;20.30;99.90
2621;DHT22;1320;48.128;11.592;2022-08-07T06:53:54;20.40;99.90
2621;DHT22;1320;48.128;11.592;2022-08-07T06:56:22;20.50;99.90
2621;DHT22;1320;48.128;11.592;2022-08-07T06:59:18;20.60;99.90
2621;DHT22;1320;48.128;11.592;2022-08-07T07:01:45;20.60;99.90
2621;DHT22;1320;48.128;11.592;2022-08-07T07:04:11;20.70;99.90
2621;DHT22;1320;48.128;11.592;2022-08-07T07:06:38;20.70;99.90
2621;DHT22;1320;48.128;11.592;2022-08-07T07:09:26;20.70;99.90
2621;DHT22;1320;48.128;11.592;2022-08-07T07:14:19;20.80;99.90
2621;DHT22;1320;48.128;11.592;2022-08-07T07:16:47;20.90;99.90
2621;DHT22;1320;48.128;11.592;2022-08-07T07:19:14;20.90;99.90
2621;DHT22;1320;48.128;11.592;2022-08-07T07:21:41;20.90;99.90
2621;DHT22;1320;48.128;11.592;2022-08-07T07:24:08;21.00;99.90
2621;DHT22;1320;48.128;11.592;2022-08-07T07:26:36;21.00;99.90
2621;DHT22;1320;48.128;11.592;2022-08-07T07:29:14;21.00;99.90
2621;DHT22;1320;48.128;11.592;2022-08-07T07:31:45;21.10;99.90
2621;DHT22;1320;48.128;11.592;2022-08-07T07:34:28;21.30;99.90
2621;DHT22;1320;48.128;11.592;2022-08-07T07:37:01;21.40;99.90
2621;DHT22;1320;48.128;11.592;2022-08-07T07:39:28;21.50;99.90
2621;DHT22;1320;48.128;11.592;2022-08-07T07:41:55;21.60;99.90
2621;DHT22;1320;48.128;11.592;2022-08-07T07:44:22;21.70;99.90
2621;DHT22;1320;48.128;11.592;2022-08-07T07:46:49;21.80;99.90
2621;DHT22;1320;48.128;11.592;2022-08-07T07:49:17;22.00;99.90
2621;DHT22;1320;48.128;11.592;2022-08-07T07:51:46;22.10;99.90
2621;DHT22;1320;48.128;11.592;2022-08-07T07:54:14;22.20;99.90
2621;DHT22;1320;48.128;11.592;2022-08-07T07:56:42;22.30;99.90
2621;DHT22;1320;48.128;11.592;2022-08-07T07:59:09;22.40;99.90
2621;DHT22;1320;48.128;11.592;2022-08-07T08:01:39;22.40;99.90
2621;DHT22;1320;48.128;11.592;2022-08-07T08:04:07;22.40;99.90
2621;DHT22;1320;48.128;11.592;2022-08-07T08:06:33;22.40;99.90
2621;DHT22;1320;48.128;11.592;2022-08-07T08:09:02;22.40;99.90
2621;DHT22;1320;48.128;11.592;2022-08-07T08:11:29;22.40;99.90
2621;DHT22;1320;48.128;11.592;2022-08-07T08:13:55;22.50;99.90
2621;DHT22;1320;48.128;11.592;2022-08-07T08:16:42;22.50;99.90
2621;DHT22;1320;48.128;11.592;2022-08-07T08:19:14;22.60;99.90
2621;DHT22;1320;48.128;11.592;2022-08-07T08:21:44;22.70;99.90
2621;DHT22;1320;48.128;11.592;2022-08-07T08:24:33;22.70;99.90
2621;DHT22;1320;48.128;11.592;2022-08-07T08:27:21;22.70;99.90
2621;DHT22;1320;48.128;11.592;2022-08-07T08:29:55;22.80;99.80
2621;DHT22;1320;48.128;11.592;2022-08-07T08:32:23;22.80;99.70
2621;DHT22;1320;48.128;11.592;2022-08-07T08:34:50;23.00;99.20
2621;DHT22;1320;48.128;11.592;2022-08-07T08:37:18;23.10;98.80
2621;DHT22;1320;48.128;11.592;2022-08-07T08:39:44;23.30;99.10
2621;DHT22;1320;48.128;11.592;2022-08-07T08:48:00;24.10;97.30
2621;DHT22;1320;48.128;11.592;2022-08-07T08:50:38;24.40;96.70
2621;DHT22;1320;48.128;11.592;2022-08-07T08:53:18;24.80;96.20
2621;DHT22;1320;48.128;11.592;2022-08-07T08:55:48;25.20;95.70
2621;DHT22;1320;48.128;11.592;2022-08-07T08:58:25;25.50;95.70
2621;DHT22;1320;48.128;11.592;2022-08-07T09:00:59;25.70;94.80
2621;DHT22;1320;48.128;11.592;2022-08-07T09:03:33;25.70;94.20
2621;DHT22;1320;48.128;11.592;2022-08-07T09:06:08;25.50;94.50
2621;DHT22;1320;48.128;11.592;2022-08-07T09:11:10;25.20;94.70
2621;DHT22;1320;48.128;11.592;2022-08-07T09:21:32;25.10;93.90
2621;DHT22;1320;48.128;11.592;2022-08-07T09:29:55;25.00;93.80
2621;DHT22;1320;48.128;11.592;2022-08-07T09:35:32;25.00;93.50
2621;DHT22;1320;48.128;11.592;2022-08-07T09:41:06;24.90;93.40
2621;DHT22;1320;48.128;11.592;2022-08-07T09:52:15;25.00;93.70
2621;DHT22;1320;48.128;11.592;2022-08-07T09:54:46;25.10;93.10
2621;DHT22;1320;48.128;11.592;2022-08-07T10:00:06;25.20;92.90
2621;DHT22;1320;48.128;11.592;2022-08-07T10:45:26;26.90;88.80
2621;DHT22;1320;48.128;11.592;2022-08-07T10:48:19;26.80;88.30
2621;DHT22;1320;48.128;11.592;2022-08-07T10:50:53;26.70;89.00
2621;DHT22;1320;48.128;11.592;2022-08-07T10:59:00;26.50;90.00
2621;DHT22;1320;48.128;11.592;2022-08-07T11:01:35;26.40;89.60
2621;DHT22;1320;48.128;11.592;2022-08-07T11:04:21;26.40;90.00
2621;DHT22;1320;48.128;11.592;2022-08-07T11:09:39;26.50;89.40
2621;DHT22;1320;48.128;11.592;2022-08-07T11:12:22;26.50;89.80
2621;DHT22;1320;48.128;11.592;2022-08-07T11:15:12;26.70;89.40
2621;DHT22;1320;48.128;11.592;2022-08-07T11:17:51;26.80;87.80
2621;DHT22;1320;48.128;11.592;2022-08-07T11:20:23;26.80;87.40
2621;DHT22;1320;48.128;11.592;2022-08-07T11:23:17;26.90;87.30
2621;DHT22;1320;48.128;11.592;2022-08-07T11:25:53;27.10;86.20
2621;DHT22;1320;48.128;11.592;2022-08-07T11:28:27;27.10;86.00
2621;DHT22;1320;48.128;11.592;2022-08-07T11:31:09;27.20;85.60
2621;DHT22;1320;48.128;11.592;2022-08-07T11:34:07;27.30;85.30
2621;DHT22;1320;48.128;11.592;2022-08-07T11:36:42;27.30;86.10
2621;DHT22;1320;48.128;11.592;2022-08-07T11:42:19;27.40;84.40
2621;DHT22;1320;48.128;11.592;2022-08-07T11:45:12;27.40;84.10
2621;DHT22;1320;48.128;11.592;2022-08-07T11:48:11;27.40;86.40
2621;DHT22;1320;48.128;11.592;2022-08-07T11:51:45;27.60;84.80
2621;DHT22;1320;48.128;11.592;2022-08-07T11:53:56;27.70;84.60
2621;DHT22;1320;48.128;11.592;2022-08-07T11:56:33;27.60;84.40
2621;DHT22;1320;48.128;11.592;2022-08-07T11:59:36;27.50;84.90
2621;DHT22;1320;48.128;11.592;2022-08-07T12:07:56;27.90;83.50
2621;DHT22;1320;48.128;11.592;2022-08-07T12:10:34;28.00;82.70
2621;DHT22;1320;48.128;11.592;2022-08-07T12:13:25;28.10;84.30
2621;DHT22;1320;48.128;11.592;2022-08-07T12:16:09;28.20;81.50
2621;DHT22;1320;48.128;11.592;2022-08-07T12:18:43;28.20;81.30
2621;DHT22;1320;48.128;11.592;2022-08-07T12:26:45;28.50;82.40
2621;DHT22;1320;48.128;11.592;2022-08-07T12:29:37;28.70;82.10
2621;DHT22;1320;48.128;11.592;2022-08-07T12:34:38;29.20;80.70
2621;DHT22;1320;48.128;11.592;2022-08-07T12:37:06;29.30;78.50
2621;DHT22;1320;48.128;11.592;2022-08-07T12:39:34;29.40;77.30
2621;DHT22;1320;48.128;11.592;2022-08-07T12:42:02;29.40;76.20
2621;DHT22;1320;48.128;11.592;2022-08-07T12:44:30;29.30;76.00
2621;DHT22;1320;48.128;11.592;2022-08-07T12:52:48;29.30;75.90
2621;DHT22;1320;48.128;11.592;2022-08-07T12:55:21;29.40;75.80
2621;DHT22;1320;48.128;11.592;2022-08-07T12:57:48;29.40;75.60
2621;DHT22;1320;48.128;11.592;2022-08-07T13:00:15;29.40;75.60
2621;DHT22;1320;48.128;11.592;2022-08-07T13:03:05;29.40;75.80
2621;DHT22;1320;48.128;11.592;2022-08-07T13:08:39;29.40;76.70
2621;DHT22;1320;48.128;11.592;2022-08-07T13:14:09;29.40;76.00
2621;DHT22;1320;48.128;11.592;2022-08-07T13:17:14;29.40;75.90
2621;DHT22;1320;48.128;11.592;2022-08-07T13:19:49;29.40;75.20
2621;DHT22;1320;48.128;11.592;2022-08-07T13:22:28;29.50;74.30
2621;DHT22;1320;48.128;11.592;2022-08-07T13:25:00;29.50;74.40
2621;DHT22;1320;48.128;11.592;2022-08-07T13:27:36;29.50;74.00
2621;DHT22;1320;48.128;11.592;2022-08-07T13:32:37;29.30;75.10
2621;DHT22;1320;48.128;11.592;2022-08-07T13:35:29;29.40;74.40
2621;DHT22;1320;48.128;11.592;2022-08-07T13:41:50;29.50;74.10
2621;DHT22;1320;48.128;11.592;2022-08-07T13:43:53;29.60;73.90
2621;DHT22;1320;48.128;11.592;2022-08-07T13:46:21;29.70;75.60
2621;DHT22;1320;48.128;11.592;2022-08-07T13:48:55;29.80;74.50
2621;DHT22;1320;48.128;11.592;2022-08-07T13:51:24;29.90;72.80
2621;DHT22;1320;48.128;11.592;2022-08-07T13:53:57;29.90;73.20
2621;DHT22;1320;48.128;11.592;2022-08-07T13:56:24;29.90;72.60
2621;DHT22;1320;48.128;11.592;2022-08-07T13:58:52;29.90;72.70
2621;DHT22;1320;48.128;11.592;2022-08-07T14:01:35;29.80;71.90
2621;DHT22;1320;48.128;11.592;2022-08-07T14:04:10;29.80;72.50
2621;DHT22;1320;48.128;11.592;2022-08-07T14:06:39;29.90;71.70
2621;DHT22;1320;48.128;11.592;2022-08-07T14:09:24;30.00;71.30
2621;DHT22;1320;48.128;11.592;2022-08-07T14:11:57;30.10;70.60
2621;DHT22;1320;48.128;11.592;2022-08-07T14:14:47;30.10;71.70
2621;DHT22;1320;48.128;11.592;2022-08-07T14:17:16;30.00;71.20
2621;DHT22;1320;48.128;11.592;2022-08-07T14:19:55;30.00;71.10
2621;DHT22;1320;48.128;11.592;2022-08-07T14:22:25;29.90;70.70
2621;DHT22;1320;48.128;11.592;2022-08-07T14:24:59;29.80;70.90
2621;DHT22;1320;48.128;11.592;2022-08-07T14:27:51;29.80;71.30
2621;DHT22;1320;48.128;11.592;2022-08-07T14:30:24;29.80;71.10
2621;DHT22;1320;48.128;11.592;2022-08-07T14:32:57;29.70;71.30
2621;DHT22;1320;48.128;11.592;2022-08-07T14:35:32;29.70;71.60
2621;DHT22;1320;48.128;11.592;2022-08-07T14:37:58;29.60;72.60
2621;DHT22;1320;48.128;11.592;2022-08-07T14:40:27;29.50;72.00
2621;DHT22;1320;48.128;11.592;2022-08-07T14:42:59;29.50;72.10
2621;DHT22;1320;48.128;11.592;2022-08-07T14:45:45;29.50;71.30
2621;DHT22;1320;48.128;11.592;2022-08-07T14:48:13;29.40;70.60
2621;DHT22;1320;48.128;11.592;2022-08-07T14:50:51;29.30;71.30
2621;DHT22;1320;48.128;11.592;2022-08-07T14:53:22;29.10;70.90
2621;DHT22;1320;48.128;11.592;2022-08-07T14:55:48;28.90;71.80
2621;DHT22;1320;48.128;11.592;2022-08-07T14:58:15;28.70;72.00
2621;DHT22;1320;48.128;11.592;2022-08-07T15:00:45;28.60;72.40
2621;DHT22;1320;48.128;11.592;2022-08-07T15:03:12;28.50;73.80
2621;DHT22;1320;48.128;11.592;2022-08-07T15:05:40;28.30;73.20
2621;DHT22;1320;48.128;11.592;2022-08-07T15:08:09;28.20;73.70
2621;DHT22;1320;48.128;11.592;2022-08-07T15:10:41;28.00;73.90
2621;DHT22;1320;48.128;11.592;2022-08-07T15:13:15;27.90;74.70
2621;DHT22;1320;48.128;11.592;2022-08-07T15:15:46;27.80;75.00
2621;DHT22;1320;48.128;11.592;2022-08-07T15:18:17;27.70;74.70
2621;DHT22;1320;48.128;11.592;2022-08-07T15:20:45;27.60;75.30
2621;DHT22;1320;48.128;11.592;2022-08-07T15:23:14;27.60;75.40
2621;DHT22;1320;48.128;11.592;2022-08-07T15:25:56;27.50;75.70
2621;DHT22;1320;48.128;11.592;2022-08-07T15:28:26;27.40;75.60
2621;DHT22;1320;48.128;11.592;2022-08-07T15:30:58;27.40;76.00
2621;DHT22;1320;48.128;11.592;2022-08-07T15:33:26;27.40;76.40
2621;DHT22;1320;48.128;11.592;2022-08-07T15:35:55;27.30;76.00
2621;DHT22;1320;48.128;11.592;2022-08-07T15:38:30;27.20;75.80
2621;DHT22;1320;48.128;11.592;2022-08-07T15:41:00;27.20;75.80
2621;DHT22;1320;48.128;11.592;2022-08-07T15:43:29;27.10;76.60
2621;DHT22;1320;48.128;11.592;2022-08-07T15:45:58;27.10;76.80
2621;DHT22;1320;48.128;11.592;2022-08-07T15:48:35;27.10;77.40
2621;DHT22;1320;48.128;11.592;2022-08-07T15:51:07;27.10;77.40
2621;DHT22;1320;48.128;11.592;2022-08-07T15:53:39;27.00;77.30
2621;DHT22;1320;48.128;11.592;2022-08-07T15:56:08;27.00;77.80
2621;DHT22;1320;48.128;11.592;2022-08-07T15:58:47;27.00;77.90
2621;DHT22;1320;48.128;11.592;2022-08-07T16:01:25;26.90;78.10
2621;DHT22;1320;48.128;11.592;2022-08-07T16:04:04;26.90;78.80
2621;DHT22;1320;48.128;11.592;2022-08-07T16:06:35;26.90;78.80
2621;DHT22;1320;48.128;11.592;2022-08-07T16:09:22;26.80;78.90
2621;DHT22;1320;48.128;11.592;2022-08-07T16:12:29;26.70;79.40
2621;DHT22;1320;48.128;11.592;2022-08-07T16:23:59;26.40;81.30
2621;DHT22;1320;48.128;11.592;2022-08-07T16:32:42;26.00;82.30
2621;DHT22;1320;48.128;11.592;2022-08-07T16:35:13;25.90;83.40
2621;DHT22;1320;48.128;11.592;2022-08-07T16:49:32;25.60;83.90
2621;DHT22;1320;48.128;11.592;2022-08-07T16:52:22;25.50;83.80
2621;DHT22;1320;48.128;11.592;2022-08-07T16:55:11;25.50;84.10
2621;DHT22;1320;48.128;11.592;2022-08-07T16:58:02;25.30;84.10
2621;DHT22;1320;48.128;11.592;2022-08-07T17:00:43;25.20;83.70
2621;DHT22;1320;48.128;11.592;2022-08-07T17:03:19;25.10;84.10
2621;DHT22;1320;48.128;11.592;2022-08-07T17:06:12;25.10;84.60
2621;DHT22;1320;48.128;11.592;2022-08-07T17:08:50;25.00;85.00
2621;DHT22;1320;48.128;11.592;2022-08-07T17:11:31;25.00;84.40
2621;DHT22;1320;48.128;11.592;2022-08-07T17:14:04;25.00;84.30
2621;DHT22;1320;48.128;11.592;2022-08-07T17:19:40;24.90;84.50
2621;DHT22;1320;48.128;11.592;2022-08-07T17:22:25;24.90;85.00
2621;DHT22;1320;48.128;11.592;2022-08-07T17:24:54;24.80;85.60
2621;DHT22;1320;48.128;11.592;2022-08-07T17:30:07;24.70;85.80
2621;DHT22;1320;48.128;11.592;2022-08-07T17:32:51;24.70;85.70
2621;DHT22;1320;48.128;11.592;2022-08-07T17:35:31;24.70;86.10
2621;DHT22;1320;48.128;11.592;2022-08-07T17:38:16;24.70;86.00
2621;DHT22;1320;48.128;11.592;2022-08-07T17:43:33;24.60;86.50
2621;DHT22;1320;48.128;11.592;2022-08-07T17:46:19;24.50;86.70
2621;DHT22;1320;48.128;11.592;2022-08-07T17:51:46;24.50;87.70
2621;DHT22;1320;48.128;11.592;2022-08-07T17:54:21;24.40;87.60
2621;DHT22;1320;48.128;11.592;2022-08-07T17:56:57;24.40;87.70
2621;DHT22;1320;48.128;11.592;2022-08-07T17:59:42;24.30;87.80
2621;DHT22;1320;48.128;11.592;2022-08-07T18:02:14;24.30;88.40
2621;DHT22;1320;48.128;11.592;2022-08-07T18:04:54;24.20;88.60
2621;DHT22;1320;48.128;11.592;2022-08-07T18:13:17;24.10;89.90
2621;DHT22;1320;48.128;11.592;2022-08-07T18:18:42;24.00;90.10
2621;DHT22;1320;48.128;11.592;2022-08-07T18:22:25;24.00;90.20
2621;DHT22;1320;48.128;11.592;2022-08-07T18:27:27;23.90;90.50
2621;DHT22;1320;48.128;11.592;2022-08-07T18:30:08;23.80;90.60
2621;DHT22;1320;48.128;11.592;2022-08-07T18:47:36;23.40;91.20
2621;DHT22;1320;48.128;11.592;2022-08-07T19:03:52;23.20;91.70
2621;DHT22;1320;48.128;11.592;2022-08-07T19:07:00;23.10;91.80
2621;DHT22;1320;48.128;11.592;2022-08-07T19:09:25;23.10;92.00
2621;DHT22;1320;48.128;11.592;2022-08-07T19:12:09;23.10;92.20
2621;DHT22;1320;48.128;11.592;2022-08-07T19:15:15;23.10;92.20
2621;DHT22;1320;48.128;11.592;2022-08-07T19:20:53;23.00;92.30
2621;DHT22;1320;48.128;11.592;2022-08-07T19:23:38;23.00;92.30
2621;DHT22;1320;48.128;11.592;2022-08-07T19:26:09;22.90;92.40
2621;DHT22;1320;48.128;11.592;2022-08-07T19:28:37;22.90;92.50
2621;DHT22;1320;48.128;11.592;2022-08-07T19:31:24;22.90;92.60
2621;DHT22;1320;48.128;11.592;2022-08-07T19:33:51;22.90;92.60
2621;DHT22;1320;48.128;11.592;2022-08-07T19:36:18;22.90;92.60
2621;DHT22;1320;48.128;11.592;2022-08-07T19:38:52;22.90;92.70
2621;DHT22;1320;48.128;11.592;2022-08-07T19:41:22;22.80;92.70
2621;DHT22;1320;48.128;11.592;2022-08-07T19:43:53;22.80;92.80
2621;DHT22;1320;48.128;11.592;2022-08-07T19:46:24;22.80;93.00
2621;DHT22;1320;48.128;11.592;2022-08-07T19:48:56;22.80;93.10
2621;DHT22;1320;48.128;11.592;2022-08-07T19:51:24;22.80;93.20
2621;DHT22;1320;48.128;11.592;2022-08-07T19:53:55;22.70;93.30
2621;DHT22;1320;48.128;11.592;2022-08-07T19:56:24;22.70;93.30
2621;DHT22;1320;48.128;11.592;2022-08-07T19:58:52;22.70;93.40
2621;DHT22;1320;48.128;11.592;2022-08-07T20:01:18;22.70;93.40
2621;DHT22;1320;48.128;11.592;2022-08-07T20:03:46;22.70;93.60
2621;DHT22;1320;48.128;11.592;2022-08-07T20:06:13;22.60;93.70